Time;durP1;ratioP1;P1;durP2;ratioP2;P2;SDS_P1;SDS_P2;PMS_P1;PMS_P2;Temp;Humidity;BMP_temperature;BMP_pressure;BME280_temperature;BME280_humidity;BME280_pressure;Samples;Min_cycle;Max_cycle;Signal;HPM_P1;HPM_P2
2022/01/18 00:02:52;;;;;;;3.47;0.90;;;4.50;99.90;;;;;;20485587;28;20365;-44
2022/01/18 00:23:03;;;;;;;3.72;0.90;;;4.60;99.90;;;;;;20478681;28;20440;-44
2022/01/18 00:43:21;;;;;;;2.83;0.82;;;4.40;99.90;;;;;;20487962;28;20051;-44
2022/01/18 00:53:22;;;;;;;2.40;0.93;;;4.30;99.90;;;;;;20495875;28;20047;-44
2022/01/18 01:03:23;;;;;;;3.22;0.95;;;4.20;99.90;;;;;;20500319;28;20593;-44
2022/01/18 01:13:25;;;;;;;2.10;0.68;;;4.20;99.90;;;;;;20476638;28;20190;-44
2022/01/18 01:44:19;;;;;;;3.85;0.90;;;4.10;99.90;;;;;;20498015;28;20356;-44
2022/01/18 01:54:20;;;;;;;1.52;0.80;;;3.90;99.90;;;;;;20505331;28;20411;-44
2022/01/18 02:04:21;;;;;;;2.08;0.60;;;3.80;99.90;;;;;;20492601;28;20058;-44
2022/01/18 02:14:23;;;;;;;2.10;1.30;;;3.70;99.90;;;;;;20496210;28;20141;-44
2022/01/18 02:24:24;;;;;;;2.08;0.57;;;3.60;99.90;;;;;;20486074;28;20066;-44
2022/01/18 02:34:25;;;;;;;1.92;0.65;;;3.50;99.90;;;;;;20478451;28;20056;-44
2022/01/18 02:44:27;;;;;;;2.05;0.63;;;3.40;99.90;;;;;;20479866;28;21883;-44
2022/01/18 02:54:28;;;;;;;1.38;0.50;;;3.60;99.90;;;;;;20477989;28;20496;-44
2022/01/18 03:04:30;;;;;;;1.48;0.35;;;3.50;99.90;;;;;;20491239;28;20497;-44
2022/01/18 03:14:30;;;;;;;2.42;0.60;;;3.50;99.90;;;;;;20483843;28;20443;-44
2022/01/18 03:24:44;;;;;;;1.25;0.40;;;3.50;99.90;;;;;;20485444;28;20395;-44
2022/01/18 03:34:45;;;;;;;2.42;0.80;;;3.50;99.90;;;;;;20505213;28;20050;-43
2022/01/18 03:44:48;;;;;;;1.50;0.63;;;3.60;99.90;;;;;;20507882;28;20050;-44
2022/01/18 03:54:50;;;;;;;2.08;0.50;;;3.60;99.90;;;;;;20492920;28;20432;-44
2022/01/18 04:04:51;;;;;;;1.48;0.40;;;3.70;99.90;;;;;;20484477;28;20039;-44
2022/01/18 04:14:51;;;;;;;1.60;0.32;;;3.60;99.90;;;;;;20497113;28;20062;-44
2022/01/18 04:35:11;;;;;;;1.00;0.30;;;3.40;99.90;;;;;;20481409;28;20055;-44
2022/01/18 04:55:32;;;;;;;2.22;0.68;;;3.40;99.90;;;;;;20482888;28;20044;-44
2022/01/18 05:05:36;;;;;;;0.98;0.30;;;3.30;99.90;;;;;;20497502;28;20159;-44
2022/01/18 05:16:05;;;;;;;2.80;0.60;;;3.40;99.90;;;;;;20493104;28;20065;-43
2022/01/18 05:26:00;;;;;;;0.70;0.40;;;3.50;99.90;;;;;;20491084;28;20082;-44
2022/01/18 05:36:01;;;;;;;1.67;0.73;;;3.50;99.90;;;;;;20496687;28;20042;-44
2022/01/18 05:46:03;;;;;;;1.60;0.65;;;3.50;99.90;;;;;;20486806;28;20295;-44
2022/01/18 05:56:06;;;;;;;1.70;0.68;;;3.50;99.90;;;;;;20486186;28;20055;-44
2022/01/18 06:16:27;;;;;;;3.30;0.90;;;3.70;99.90;;;;;;20493180;28;20051;-44
2022/01/18 06:26:28;;;;;;;4.65;1.08;;;3.80;99.90;;;;;;20497254;28;20619;-44
2022/01/18 06:36:28;;;;;;;2.40;0.80;;;3.60;99.90;;;;;;20494072;28;20487;-44
2022/01/18 06:46:29;;;;;;;1.70;0.70;;;3.50;99.90;;;;;;20494726;28;20075;-44
2022/01/18 06:56:30;;;;;;;2.37;0.83;;;3.60;99.90;;;;;;20473224;28;20102;-44
2022/01/18 07:06:31;;;;;;;2.08;1.10;;;3.60;99.90;;;;;;20479660;28;20299;-44
2022/01/18 07:16:32;;;;;;;4.97;1.35;;;3.60;99.90;;;;;;20489954;28;20102;-44
2022/01/18 07:26:33;;;;;;;4.87;1.17;;;3.60;99.90;;;;;;20491459;28;20261;-44
2022/01/18 07:36:34;;;;;;;3.03;1.15;;;3.60;99.90;;;;;;20484585;28;20314;-44
2022/01/18 07:46:34;;;;;;;3.78;1.60;;;3.60;99.90;;;;;;20495252;28;20054;-44
2022/01/18 07:56:35;;;;;;;2.80;1.27;;;3.50;99.90;;;;;;20489824;28;20078;-44
2022/01/18 08:06:36;;;;;;;3.55;1.05;;;3.50;99.90;;;;;;20484943;28;20131;-44
2022/01/18 08:16:47;;;;;;;2.30;0.73;;;3.60;99.90;;;;;;20495562;28;20544;-44
2022/01/18 08:26:51;;;;;;;2.00;0.70;;;3.50;99.90;;;;;;20488841;28;20067;-44
2022/01/18 08:36:52;;;;;;;1.42;0.50;;;3.50;99.90;;;;;;20501563;28;20075;-44
2022/01/18 08:46:55;;;;;;;1.27;0.47;;;3.50;99.90;;;;;;20496085;28;20150;-44
2022/01/18 08:56:56;;;;;;;2.10;0.80;;;3.50;99.90;;;;;;20501670;28;20039;-44
2022/01/18 09:06:59;;;;;;;5.18;0.95;;;3.50;99.90;;;;;;20510797;28;20858;-44
2022/01/18 09:17:00;;;;;;;1.70;0.50;;;3.70;99.90;;;;;;20510483;28;20043;-44
2022/01/18 09:27:01;;;;;;;2.20;1.05;;;3.80;99.90;;;;;;20491682;28;20135;-44
2022/01/18 09:37:01;;;;;;;1.13;0.35;;;3.90;99.90;;;;;;20482429;28;20038;-44
2022/01/18 09:47:03;;;;;;;2.08;0.75;;;4.10;99.90;;;;;;20500978;28;20101;-44
2022/01/18 09:57:04;;;;;;;3.45;1.25;;;4.20;99.90;;;;;;20491306;28;20054;-44
2022/01/18 10:07:05;;;;;;;2.88;0.63;;;4.20;99.90;;;;;;20500383;28;20109;-43
2022/01/18 10:17:07;;;;;;;1.80;0.95;;;4.30;99.90;;;;;;20493785;28;20511;-44
2022/01/18 10:27:10;;;;;;;4.82;0.75;;;4.40;99.90;;;;;;20491743;28;20046;-44
2022/01/18 10:37:17;;;;;;;9.77;1.00;;;4.60;99.90;;;;;;20491086;28;20039;-44
2022/01/18 10:47:17;;;;;;;2.72;0.70;;;4.50;99.90;;;;;;20486698;28;20049;-44
2022/01/18 10:57:25;;;;;;;1.75;0.80;;;4.60;99.90;;;;;;20496760;28;20355;-44
2022/01/18 11:07:28;;;;;;;2.55;0.57;;;4.70;99.90;;;;;;20498844;28;20042;-44
2022/01/18 11:17:38;;;;;;;2.03;0.47;;;4.80;99.90;;;;;;20499541;28;20432;-44
2022/01/18 11:27:42;;;;;;;2.25;0.88;;;4.90;99.90;;;;;;20491125;28;20399;-44
2022/01/18 11:38:07;;;;;;;8.45;2.58;;;5.00;99.90;;;;;;20478850;28;20058;-44
2022/01/18 11:48:19;;;;;;;10.98;3.63;;;5.20;99.90;;;;;;20486631;28;20044;-44
2022/01/18 11:58:21;;;;;;;8.63;3.25;;;5.30;99.90;;;;;;20494886;28;20051;-44
2022/01/18 12:08:32;;;;;;;19.05;5.57;;;5.40;99.90;;;;;;20459826;28;20399;-44
2022/01/18 12:18:34;;;;;;;13.90;4.53;;;5.50;99.90;;;;;;20496381;28;20141;-44
2022/01/18 12:39:04;;;;;;;11.88;4.68;;;5.50;99.90;;;;;;20485752;28;20082;-44
2022/01/18 12:49:07;;;;;;;11.50;3.90;;;5.60;99.90;;;;;;20498787;28;20050;-44
2022/01/18 12:59:08;;;;;;;18.85;4.53;;;5.70;99.90;;;;;;20454442;28;20073;-44
2022/01/18 13:09:08;;;;;;;19.58;5.40;;;5.70;99.90;;;;;;20487092;28;20046;-44
2022/01/18 13:29:31;;;;;;;16.10;4.50;;;5.80;99.90;;;;;;20475059;28;20098;-44
2022/01/18 13:39:33;;;;;;;21.70;6.22;;;5.80;99.90;;;;;;20483878;28;20055;-44
2022/01/18 13:49:36;;;;;;;16.42;5.18;;;5.80;99.90;;;;;;20462158;28;20094;-44
2022/01/18 13:59:36;;;;;;;28.02;7.70;;;5.90;99.90;;;;;;20486122;28;20430;-44
2022/01/18 14:09:38;;;;;;;24.02;6.85;;;5.90;99.90;;;;;;20488636;28;20562;-44
2022/01/18 14:19:42;;;;;;;23.20;6.93;;;5.90;99.90;;;;;;20480155;28;20649;-45
2022/01/18 14:29:42;;;;;;;17.70;5.68;;;5.90;99.90;;;;;;20480078;28;20055;-44
2022/01/18 14:39:57;;;;;;;19.88;5.20;;;6.00;99.90;;;;;;20483558;28;20101;-44
2022/01/18 14:50:07;;;;;;;25.40;6.28;;;5.90;99.90;;;;;;20458816;28;20591;-44
2022/01/18 15:00:12;;;;;;;26.13;5.00;;;5.90;99.90;;;;;;20475634;28;20090;-44
2022/01/18 15:10:15;;;;;;;15.80;6.00;;;6.00;99.90;;;;;;20486883;28;20050;-44
2022/01/18 15:20:20;;;;;;;15.20;4.18;;;5.80;99.90;;;;;;20472638;28;20527;-44
2022/01/18 15:30:23;;;;;;;21.10;4.90;;;5.80;99.90;;;;;;20500818;28;20511;-44
2022/01/18 15:40:23;;;;;;;11.90;4.05;;;5.70;99.90;;;;;;20508504;28;20392;-44
2022/01/18 15:50:25;;;;;;;16.17;4.13;;;5.70;99.90;;;;;;20499921;28;20149;-45
2022/01/18 16:00:25;;;;;;;10.23;4.55;;;5.70;99.90;;;;;;20501155;28;20294;-44
2022/01/18 16:10:26;;;;;;;17.30;5.13;;;5.70;99.90;;;;;;20507899;28;20051;-44
2022/01/18 16:20:27;;;;;;;13.73;5.18;;;5.70;99.90;;;;;;20492414;28;20303;-44
2022/01/18 16:30:28;;;;;;;21.90;5.40;;;5.50;99.90;;;;;;20498910;28;20459;-45
2022/01/18 16:40:29;;;;;;;19.88;6.10;;;5.50;99.90;;;;;;20476303;28;20415;-46
2022/01/18 16:50:30;;;;;;;17.17;5.72;;;5.50;99.90;;;;;;20476808;28;20129;-44
2022/01/18 17:00:31;;;;;;;18.73;4.75;;;5.50;99.90;;;;;;20472072;28;20136;-44
2022/01/18 17:10:31;;;;;;;16.85;4.25;;;5.40;99.90;;;;;;20529258;28;20124;-44
2022/01/18 17:20:33;;;;;;;13.70;4.03;;;5.40;99.90;;;;;;20514408;28;20035;-44
2022/01/18 17:30:34;;;;;;;13.67;4.33;;;5.30;99.90;;;;;;20517049;28;20059;-44
2022/01/18 17:40:36;;;;;;;20.23;5.30;;;5.30;99.90;;;;;;20502017;28;20277;-44
2022/01/18 17:50:36;;;;;;;19.15;6.78;;;5.30;99.90;;;;;;20504151;28;20035;-44
2022/01/18 18:00:39;;;;;;;17.30;6.30;;;5.40;99.90;;;;;;20517151;28;20415;-44
2022/01/18 18:10:40;;;;;;;25.35;6.60;;;5.40;99.90;;;;;;20506192;28;20129;-44
2022/01/18 18:20:42;;;;;;;24.77;7.07;;;5.40;99.90;;;;;;20482302;28;20032;-44
2022/01/18 18:30:43;;;;;;;23.92;6.97;;;5.40;99.90;;;;;;20426605;28;20051;-44
2022/01/18 18:40:56;;;;;;;26.88;6.85;;;5.50;99.90;;;;;;20475665;28;20364;-44
2022/01/18 18:50:58;;;;;;;20.55;7.70;;;5.50;99.90;;;;;;20452581;28;20054;-44
2022/01/18 19:01:07;;;;;;;23.63;8.68;;;5.50;99.90;;;;;;20498827;28;20665;-45
2022/01/18 19:11:09;;;;;;;31.33;7.93;;;5.60;99.90;;;;;;20466893;28;20042;-44
2022/01/18 19:21:10;;;;;;;32.25;7.13;;;5.60;99.90;;;;;;20459813;28;20062;-44
2022/01/18 19:31:11;;;;;;;33.25;7.55;;;5.60;99.90;;;;;;20435184;28;20574;-44
2022/01/18 19:41:12;;;;;;;28.85;6.22;;;5.70;99.90;;;;;;20464138;28;20803;-44
2022/01/18 19:51:13;;;;;;;14.75;5.03;;;5.70;99.90;;;;;;20458158;28;20051;-44
2022/01/18 20:01:14;;;;;;;16.92;6.07;;;5.80;99.90;;;;;;20468971;28;20502;-44
2022/01/18 20:11:15;;;;;;;19.73;5.73;;;5.80;99.90;;;;;;20483374;28;20047;-44
2022/01/18 20:21:17;;;;;;;15.68;5.25;;;5.80;99.90;;;;;;20500388;28;20345;-44
2022/01/18 20:31:21;;;;;;;16.08;6.13;;;5.80;99.90;;;;;;20496964;28;20519;-44
2022/01/18 20:41:34;;;;;;;22.75;6.78;;;5.70;99.90;;;;;;20498973;28;20055;-44
2022/01/18 20:51:34;;;;;;;17.23;6.05;;;5.70;99.90;;;;;;20481266;28;20558;-44
2022/01/18 21:01:35;;;;;;;20.07;6.43;;;5.50;99.90;;;;;;20486931;28;20523;-44
2022/01/18 21:11:36;;;;;;;16.37;6.07;;;5.30;99.90;;;;;;20487779;28;20361;-44
2022/01/18 21:21:37;;;;;;;15.45;5.88;;;5.10;99.90;;;;;;20478326;28;20290;-44
2022/01/18 21:31:39;;;;;;;12.35;4.85;;;4.90;99.90;;;;;;20467933;28;20086;-44
2022/01/18 21:41:40;;;;;;;14.52;4.97;;;4.80;99.90;;;;;;20475599;28;20154;-44
2022/01/18 21:51:41;;;;;;;18.85;5.63;;;4.50;99.90;;;;;;20490504;28;20137;-44
2022/01/18 22:01:42;;;;;;;12.35;5.10;;;4.30;99.90;;;;;;20487429;28;20043;-44
2022/01/18 22:11:42;;;;;;;12.95;4.43;;;4.10;99.90;;;;;;20481754;28;20043;-44
2022/01/18 22:21:43;;;;;;;18.77;5.00;;;4.20;99.90;;;;;;20474950;28;20122;-44
2022/01/18 22:31:43;;;;;;;11.60;4.60;;;4.40;99.90;;;;;;20487871;28;20141;-44
2022/01/18 22:41:57;;;;;;;13.73;5.43;;;4.50;99.90;;;;;;20473229;28;20774;-44
2022/01/18 22:52:00;;;;;;;17.92;5.72;;;4.70;99.90;;;;;;20462886;28;20102;-44
2022/01/18 23:02:01;;;;;;;18.92;5.45;;;4.70;99.90;;;;;;20477672;28;20051;-44
2022/01/18 23:12:02;;;;;;;16.02;5.47;;;4.60;99.90;;;;;;20483094;28;20062;-44
2022/01/18 23:22:03;;;;;;;16.67;6.13;;;4.60;99.90;;;;;;20472564;28;20051;-44
2022/01/18 23:32:04;;;;;;;11.82;4.28;;;4.40;99.90;;;;;;20478569;28;20306;-44
2022/01/18 23:42:04;;;;;;;19.30;4.70;;;4.10;99.90;;;;;;20484922;28;20079;-44
2022/01/18 23:52:05;;;;;;;15.35;4.22;;;3.90;99.90;;;;;;20498494;28;20043;-44
